Time;durP1;ratioP1;P1;durP2;ratioP2;P2;SDS_P1;SDS_P2;PMS_P1;PMS_P2;Temp;Humidity;BMP_temperature;BMP_pressure;BME280_temperature;BME280_humidity;BME280_pressure;Samples;Min_cycle;Max_cycle;Signal;HPM_P1;HPM_P2
2022/08/08 00:02:20;;;;;;;7.65;4.38;;;14.60;99.90;;;;;;5093091;28;20066;-77
2022/08/08 00:05:21;;;;;;;13.52;4.93;;;14.60;99.90;;;;;;5092748;28;20047;-75
2022/08/08 00:08:12;;;;;;;7.90;5.20;;;14.30;99.90;;;;;;5077210;28;20095;-74
2022/08/08 00:10:51;;;;;;;11.80;5.47;;;14.20;99.90;;;;;;5093202;28;20052;-76
2022/08/08 00:13:25;;;;;;;9.65;5.60;;;14.50;99.90;;;;;;5091922;28;20128;-77
2022/08/08 00:16:07;;;;;;;7.15;5.10;;;14.20;99.90;;;;;;5091981;28;20062;-75
2022/08/08 00:18:48;;;;;;;9.68;5.13;;;14.00;99.90;;;;;;5092637;28;20055;-77
2022/08/08 00:21:21;;;;;;;8.80;5.30;;;14.10;99.90;;;;;;5092969;28;20044;-76
2022/08/08 00:23:57;;;;;;;13.20;6.43;;;13.80;99.90;;;;;;5092824;28;20063;-78
2022/08/08 00:26:40;;;;;;;15.50;6.28;;;13.70;99.90;;;;;;5092923;28;20055;-76
2022/08/08 00:29:26;;;;;;;11.50;6.00;;;14.70;99.90;;;;;;5093068;28;20048;-75
2022/08/08 00:31:59;;;;;;;6.68;5.20;;;15.00;99.90;;;;;;5092943;28;20051;-76
2022/08/08 00:35:12;;;;;;;9.10;5.68;;;14.10;99.90;;;;;;5092479;28;20450;-75
2022/08/08 00:38:03;;;;;;;10.93;6.43;;;13.70;99.90;;;;;;5092725;28;20095;-77
2022/08/08 00:40:28;;;;;;;7.72;6.07;;;14.10;99.90;;;;;;5092487;28;20514;-76
2022/08/08 00:43:09;;;;;;;10.40;6.80;;;13.80;99.90;;;;;;5092557;28;20051;-77
2022/08/08 00:45:53;;;;;;;10.45;7.18;;;14.10;99.90;;;;;;5091595;28;20426;-75
2022/08/08 00:48:44;;;;;;;10.02;6.38;;;14.10;99.90;;;;;;5092088;28;20157;-75
2022/08/08 00:51:31;;;;;;;10.27;7.00;;;14.30;99.90;;;;;;5092578;28;20051;-76
2022/08/08 00:54:42;;;;;;;11.80;6.72;;;11.80;99.90;;;;;;5092414;28;20090;-75
2022/08/08 00:57:41;;;;;;;10.38;6.95;;;14.00;99.90;;;;;;5092222;28;20466;-77
2022/08/08 01:00:19;;;;;;;10.40;6.65;;;14.20;99.90;;;;;;5092290;28;20122;-75
2022/08/08 01:03:24;;;;;;;10.20;6.88;;;14.00;99.90;;;;;;5092067;28;20051;-76
2022/08/08 01:06:14;;;;;;;11.90;7.30;;;14.30;99.90;;;;;;5083236;28;20059;-76
2022/08/08 01:09:10;;;;;;;11.68;7.00;;;14.40;99.90;;;;;;5092140;28;20044;-76
2022/08/08 01:11:51;;;;;;;10.02;7.68;;;14.10;99.90;;;;;;5091533;28;20268;-77
2022/08/08 01:14:58;;;;;;;12.60;7.65;;;14.10;99.90;;;;;;5091940;28;20048;-77
2022/08/08 01:17:36;;;;;;;9.50;6.70;;;14.30;99.90;;;;;;5082897;28;20513;-75
2022/08/08 01:20:47;;;;;;;15.80;7.90;;;14.10;99.90;;;;;;5091849;28;20455;-77
2022/08/08 01:23:34;;;;;;;11.18;7.47;;;13.80;99.90;;;;;;5090857;28;20135;-78
2022/08/08 01:26:15;;;;;;;11.85;7.05;;;14.10;99.90;;;;;;5090627;28;20349;-78
2022/08/08 01:29:08;;;;;;;12.35;6.90;;;14.50;99.90;;;;;;5090740;28;20104;-77
2022/08/08 01:31:59;;;;;;;11.15;7.40;;;14.40;99.90;;;;;;5091634;28;20399;-77
2022/08/08 01:34:52;;;;;;;10.65;7.53;;;14.20;99.90;;;;;;5091642;28;20048;-76
2022/08/08 01:37:33;;;;;;;11.80;7.60;;;14.40;99.90;;;;;;5091897;28;20048;-77
2022/08/08 01:40:20;;;;;;;12.40;7.50;;;15.00;99.90;;;;;;5091759;28;20044;-77
2022/08/08 01:43:17;;;;;;;10.35;7.20;;;13.80;99.90;;;;;;5090443;28;20480;-77
2022/08/08 01:46:07;;;;;;;10.07;7.47;;;14.30;99.90;;;;;;5091376;28;20044;-76
2022/08/08 01:48:55;;;;;;;9.88;7.32;;;14.40;99.90;;;;;;5091672;28;20056;-78
2022/08/08 01:51:47;;;;;;;10.05;7.50;;;14.10;99.90;;;;;;5091567;28;20475;-75
2022/08/08 01:54:40;;;;;;;9.13;6.97;;;14.30;99.90;;;;;;5091544;28;20052;-75
2022/08/08 01:57:31;;;;;;;11.93;7.18;;;14.40;99.90;;;;;;5091620;28;20054;-75
2022/08/08 01:59:59;;;;;;;11.70;7.22;;;14.10;99.90;;;;;;5091552;28;20047;-76
2022/08/08 02:03:07;;;;;;;12.70;7.63;;;14.00;99.90;;;;;;5091454;28;20078;-78
2022/08/08 02:06:10;;;;;;;13.57;7.93;;;14.30;99.90;;;;;;5091620;28;20135;-76
2022/08/08 02:08:55;;;;;;;10.07;7.82;;;14.20;99.90;;;;;;5091607;28;20477;-75
2022/08/08 02:11:38;;;;;;;8.40;7.40;;;14.20;99.90;;;;;;5091393;28;20040;-73
2022/08/08 02:14:12;;;;;;;11.02;7.47;;;14.30;99.90;;;;;;5091084;28;20104;-75
2022/08/08 02:17:03;;;;;;;13.80;7.80;;;14.10;99.90;;;;;;5090328;28;20048;-72
2022/08/08 02:19:54;;;;;;;11.23;7.80;;;14.50;99.90;;;;;;5091556;28;20622;-74
2022/08/08 02:22:33;;;;;;;16.33;8.45;;;14.30;99.90;;;;;;5091465;28;20044;-76
2022/08/08 02:25:04;;;;;;;12.38;7.40;;;14.40;99.90;;;;;;5095427;28;20120;-76
2022/08/08 02:27:38;;;;;;;13.88;7.88;;;14.30;99.90;;;;;;5095352;28;20062;-79
2022/08/08 02:30:17;;;;;;;11.52;7.35;;;14.30;99.90;;;;;;5095052;28;20752;-77
2022/08/08 02:33:11;;;;;;;10.27;7.82;;;14.40;99.90;;;;;;5095008;28;20060;-76
2022/08/08 02:35:52;;;;;;;10.50;7.95;;;14.50;99.90;;;;;;5092404;28;20113;-76
2022/08/08 02:38:42;;;;;;;12.48;7.60;;;14.40;99.90;;;;;;5077111;28;20044;-78
2022/08/08 02:41:35;;;;;;;15.25;7.35;;;14.60;99.90;;;;;;5094933;28;20054;-77
2022/08/08 02:44:25;;;;;;;12.68;7.20;;;14.40;99.90;;;;;;5094743;28;20414;-77
2022/08/08 02:47:21;;;;;;;13.38;8.13;;;14.50;99.90;;;;;;5094981;28;20047;-78
2022/08/08 02:50:07;;;;;;;11.00;7.18;;;14.40;99.90;;;;;;5094548;28;20139;-75
2022/08/08 02:52:42;;;;;;;12.30;7.78;;;14.50;99.90;;;;;;5094886;28;20048;-76
2022/08/08 02:55:45;;;;;;;12.80;7.63;;;14.70;99.90;;;;;;5094510;28;20549;-74
2022/08/08 02:58:35;;;;;;;14.45;7.72;;;14.30;99.90;;;;;;5094137;28;20044;-77
2022/08/08 03:01:15;;;;;;;10.50;7.20;;;14.40;99.90;;;;;;5094868;28;20151;-77
2022/08/08 03:03:44;;;;;;;12.20;7.75;;;14.80;99.90;;;;;;5093147;28;20056;-77
2022/08/08 03:06:28;;;;;;;11.50;7.70;;;14.30;99.90;;;;;;5094436;28;20184;-75
2022/08/08 03:09:38;;;;;;;10.73;7.47;;;14.40;99.90;;;;;;5094591;28;20080;-75
2022/08/08 03:12:25;;;;;;;12.85;8.13;;;14.40;99.90;;;;;;5094000;28;20460;-74
2022/08/08 03:15:25;;;;;;;11.82;7.70;;;14.50;99.90;;;;;;5093979;28;20104;-77
2022/08/08 03:17:58;;;;;;;10.30;7.63;;;14.50;99.90;;;;;;5094252;28;20047;-77
2022/08/08 03:20:24;;;;;;;14.75;8.27;;;14.40;99.90;;;;;;5075903;28;20048;-76
2022/08/08 03:22:52;;;;;;;13.45;8.85;;;14.60;99.90;;;;;;5094090;28;20052;-77
2022/08/08 03:25:21;;;;;;;12.98;8.02;;;14.40;99.90;;;;;;5093932;28;20113;-77
2022/08/08 03:27:52;;;;;;;15.07;8.05;;;14.40;99.90;;;;;;5075902;28;20055;-75
2022/08/08 03:30:21;;;;;;;13.65;8.10;;;14.60;99.90;;;;;;5093886;28;20523;-77
2022/08/08 03:35:39;;;;;;;14.13;8.50;;;14.50;99.90;;;;;;5092288;28;20407;-77
2022/08/08 03:38:05;;;;;;;15.52;7.95;;;14.60;99.90;;;;;;5075725;28;20051;-74
2022/08/08 03:40:30;;;;;;;;;;;14.30;99.90;;;;;;5094181;28;20411;-75
2022/08/08 03:42:57;;;;;;;14.98;8.32;;;14.60;99.90;;;;;;5093518;28;19920;-76
2022/08/08 03:45:25;;;;;;;13.57;8.40;;;14.50;99.90;;;;;;5093628;28;20048;-74
2022/08/08 03:48:09;;;;;;;12.07;8.60;;;14.60;99.90;;;;;;5092341;28;20044;-77
2022/08/08 03:50:39;;;;;;;17.83;8.85;;;14.40;99.90;;;;;;5093502;28;20130;-76
2022/08/08 03:53:08;;;;;;;13.15;8.45;;;14.70;99.90;;;;;;5093501;28;20518;-77
2022/08/08 03:55:38;;;;;;;12.27;8.23;;;14.60;99.90;;;;;;5093085;28;20131;-74
2022/08/08 03:58:03;;;;;;;15.82;9.20;;;14.50;99.90;;;;;;5093319;28;20109;-76
2022/08/08 04:00:29;;;;;;;12.40;8.73;;;14.70;99.90;;;;;;5092350;28;20345;-75
2022/08/08 04:02:55;;;;;;;;;;;14.60;99.90;;;;;;5092353;28;20071;-76
2022/08/08 04:05:23;;;;;;;13.05;9.38;;;15.10;99.90;;;;;;5093510;28;20417;-77
2022/08/08 04:07:48;;;;;;;11.75;8.35;;;14.50;99.90;;;;;;5093325;28;20087;-76
2022/08/08 04:10:14;;;;;;;11.77;9.88;;;14.60;99.90;;;;;;5092192;28;20086;-75
2022/08/08 04:12:40;;;;;;;;;;;14.50;99.90;;;;;;5093772;28;20077;-75
2022/08/08 04:15:06;;;;;;;12.77;9.07;;;14.50;99.90;;;;;;5093065;28;20226;-76
2022/08/08 04:17:32;;;;;;;;;;;14.40;99.90;;;;;;5075437;28;20048;-76
2022/08/08 04:19:57;;;;;;;17.67;9.75;;;14.70;99.90;;;;;;5093114;28;19927;-76
2022/08/08 04:22:25;;;;;;;;;;;14.80;99.90;;;;;;5093347;28;20044;-76
2022/08/08 04:24:52;;;;;;;;;;;14.60;99.90;;;;;;5091792;28;20312;-76
2022/08/08 04:27:18;;;;;;;17.25;9.63;;;14.70;99.90;;;;;;5092772;28;20441;-75
2022/08/08 04:29:43;;;;;;;;;;;14.90;99.90;;;;;;5093006;28;20044;-74
2022/08/08 04:32:13;;;;;;;12.45;8.32;;;14.80;99.90;;;;;;5092411;28;19965;-75
2022/08/08 04:34:42;;;;;;;14.60;9.35;;;14.40;99.90;;;;;;5091388;28;20079;-74
2022/08/08 04:37:08;;;;;;;16.13;10.00;;;14.60;99.90;;;;;;5092774;28;20044;-74
2022/08/08 04:39:33;;;;;;;14.55;9.70;;;14.40;99.90;;;;;;5092409;28;20510;-75
2022/08/08 04:41:59;;;;;;;13.77;10.23;;;14.60;99.90;;;;;;5092565;28;20047;-74
2022/08/08 04:44:25;;;;;;;;;;;14.70;99.90;;;;;;5091790;28;20057;-74
2022/08/08 04:46:51;;;;;;;15.07;9.23;;;14.50;99.90;;;;;;5091835;28;19923;-74
2022/08/08 04:49:16;;;;;;;;;;;14.80;99.90;;;;;;5093303;28;20130;-75
2022/08/08 04:51:42;;;;;;;15.80;9.20;;;14.40;99.90;;;;;;5074477;28;20283;-75
2022/08/08 04:54:08;;;;;;;;;;;14.50;99.90;;;;;;5092567;28;20055;-74
2022/08/08 04:56:34;;;;;;;15.48;9.52;;;14.60;99.90;;;;;;5092245;28;19920;-75
2022/08/08 04:58:59;;;;;;;19.02;9.30;;;14.70;99.90;;;;;;5092183;28;20545;-74
2022/08/08 05:01:25;;;;;;;;;;;14.40;99.90;;;;;;5092938;28;20102;-74
2022/08/08 05:03:50;;;;;;;18.13;9.35;;;14.60;99.90;;;;;;5092369;28;19978;-75
2022/08/08 05:06:16;;;;;;;12.27;8.70;;;14.60;99.90;;;;;;5092331;28;20059;-75
2022/08/08 05:08:42;;;;;;;;;;;14.60;99.90;;;;;;5092344;28;20040;-74
2022/08/08 05:11:12;;;;;;;13.55;9.30;;;14.40;99.90;;;;;;5092083;28;19920;-75
2022/08/08 05:13:39;;;;;;;13.98;9.65;;;14.30;99.90;;;;;;5091895;28;20079;-74
2022/08/08 05:16:04;;;;;;;14.93;9.73;;;14.10;99.90;;;;;;5090823;28;20512;-75
2022/08/08 05:18:32;;;;;;;12.88;9.02;;;14.30;99.90;;;;;;5091913;28;20127;-74
2022/08/08 05:20:59;;;;;;;17.20;9.43;;;15.20;99.90;;;;;;5091930;28;20052;-72
2022/08/08 05:23:25;;;;;;;14.07;9.60;;;14.10;99.90;;;;;;5090624;28;20086;-76
2022/08/08 05:25:50;;;;;;;;;;;14.00;99.90;;;;;;5092334;28;20036;-75
2022/08/08 05:28:17;;;;;;;20.35;9.32;;;14.10;99.90;;;;;;5091880;28;20396;-77
2022/08/08 05:30:43;;;;;;;14.55;9.73;;;14.30;99.90;;;;;;5091860;28;20044;-74
2022/08/08 05:33:09;;;;;;;13.95;9.45;;;14.50;99.90;;;;;;5090512;28;20377;-75
2022/08/08 05:35:35;;;;;;;13.10;9.18;;;14.10;99.90;;;;;;5090503;28;20048;-74
2022/08/08 05:38:05;;;;;;;14.80;9.55;;;14.30;99.90;;;;;;5091543;28;20054;-75
2022/08/08 05:40:33;;;;;;;13.02;9.63;;;14.50;99.90;;;;;;5090554;28;20058;-75
2022/08/08 05:43:09;;;;;;;16.25;9.32;;;14.50;99.90;;;;;;5087088;28;20040;-74
2022/08/08 05:45:36;;;;;;;13.25;9.50;;;14.50;99.90;;;;;;5089584;28;20173;-75
2022/08/08 05:48:03;;;;;;;13.85;9.93;;;14.20;99.90;;;;;;5089804;28;20052;-75
2022/08/08 05:50:31;;;;;;;12.82;9.98;;;14.50;99.90;;;;;;5089578;28;20139;-75
2022/08/08 05:52:57;;;;;;;13.80;9.15;;;14.70;99.90;;;;;;5089648;28;20420;-75
2022/08/08 05:55:24;;;;;;;14.77;9.45;;;14.60;99.90;;;;;;5090036;28;20040;-75
2022/08/08 05:57:58;;;;;;;18.17;9.50;;;14.80;99.90;;;;;;5089886;28;20044;-74
2022/08/08 06:00:31;;;;;;;14.65;9.48;;;14.60;99.90;;;;;;5094063;28;20381;-76
2022/08/08 06:03:12;;;;;;;14.45;9.90;;;15.10;99.90;;;;;;5094772;28;20454;-77
2022/08/08 06:05:58;;;;;;;13.77;9.45;;;15.10;99.90;;;;;;5090399;28;20479;-75
2022/08/08 06:08:48;;;;;;;15.80;9.35;;;15.30;99.90;;;;;;5093920;28;20492;-77
2022/08/08 06:11:14;;;;;;;17.02;9.38;;;15.30;99.90;;;;;;5092048;28;20496;-75
2022/08/08 06:13:40;;;;;;;16.48;8.95;;;15.50;99.90;;;;;;5092384;28;20036;-76
2022/08/08 06:16:09;;;;;;;16.10;9.27;;;15.90;99.90;;;;;;5094254;28;20114;-76
2022/08/08 06:18:36;;;;;;;16.02;9.98;;;16.10;99.90;;;;;;5089317;28;20060;-75
2022/08/08 06:21:03;;;;;;;13.95;9.25;;;16.20;99.90;;;;;;5093386;28;20484;-76
2022/08/08 06:23:28;;;;;;;12.57;8.68;;;16.30;99.90;;;;;;5094276;28;20063;-74
2022/08/08 06:26:13;;;;;;;15.18;9.45;;;16.20;99.90;;;;;;5093884;28;20040;-76
2022/08/08 06:28:57;;;;;;;14.15;8.32;;;16.60;99.90;;;;;;5089343;28;20085;-77
2022/08/08 06:31:22;;;;;;;13.48;7.70;;;16.80;99.90;;;;;;5093671;28;20048;-73
2022/08/08 06:34:00;;;;;;;;;;;16.90;99.90;;;;;;5088901;28;20055;-75
2022/08/08 06:36:37;;;;;;;11.85;6.90;;;17.20;99.90;;;;;;5092601;28;19920;-75
2022/08/08 06:39:04;;;;;;;14.90;6.53;;;17.20;99.90;;;;;;5075165;28;20052;-71
2022/08/08 06:41:55;;;;;;;8.90;6.15;;;17.50;99.90;;;;;;5092560;28;20135;-79
2022/08/08 06:44:23;;;;;;;7.97;5.45;;;17.70;99.90;;;;;;5088143;28;20060;-77
2022/08/08 06:46:51;;;;;;;7.28;4.40;;;17.70;99.90;;;;;;5092435;28;20056;-72
2022/08/08 06:49:17;;;;;;;7.68;4.32;;;17.90;99.90;;;;;;5094414;28;20040;-69
2022/08/08 06:51:43;;;;;;;7.70;4.30;;;18.00;99.90;;;;;;5094355;28;20505;-81
2022/08/08 06:54:09;;;;;;;;;;;18.00;99.90;;;;;;5094892;28;20052;-78
2022/08/08 06:56:35;;;;;;;5.07;3.20;;;18.10;99.90;;;;;;5094116;28;20380;-80
2022/08/08 07:05:09;;;;;;;7.20;3.50;;;18.50;99.90;;;;;;5150251;27;20111;-78
2022/08/08 07:07:58;;;;;;;4.43;1.92;;;18.90;99.90;;;;;;5129989;28;20052;-69
2022/08/08 07:10:25;;;;;;;5.97;2.00;;;18.80;99.90;;;;;;5111144;28;20122;-71
2022/08/08 07:13:01;;;;;;;6.07;1.73;;;19.00;99.90;;;;;;5129437;28;20047;-67
2022/08/08 07:15:44;;;;;;;3.78;1.75;;;19.20;99.90;;;;;;5117897;28;20052;-73
2022/08/08 07:18:10;;;;;;;4.13;1.65;;;19.00;99.90;;;;;;5108638;28;20036;-68
2022/08/08 07:20:43;;;;;;;3.90;1.75;;;19.20;99.90;;;;;;5128402;28;20047;-77
2022/08/08 07:23:23;;;;;;;4.28;1.60;;;19.20;99.90;;;;;;5128978;28;20133;-74
2022/08/08 07:25:51;;;;;;;3.25;1.50;;;19.00;99.90;;;;;;5127718;28;20118;-78
2022/08/08 07:28:21;;;;;;;5.57;1.90;;;19.10;99.90;;;;;;5110668;28;20059;-75
2022/08/08 07:30:47;;;;;;;1.92;1.42;;;18.70;99.90;;;;;;5125870;28;20062;-77
2022/08/08 07:33:14;;;;;;;5.28;1.67;;;18.90;99.90;;;;;;5125381;28;20040;-78
2022/08/08 07:35:40;;;;;;;3.97;1.80;;;19.40;99.90;;;;;;5126708;28;20788;-77
2022/08/08 07:38:09;;;;;;;5.78;1.92;;;19.20;99.90;;;;;;5128071;28;20112;-75
2022/08/08 07:40:36;;;;;;;5.18;1.70;;;19.30;99.90;;;;;;5124400;28;20051;-75
2022/08/08 07:43:04;;;;;;;3.90;1.70;;;19.10;99.90;;;;;;5126728;28;20046;-75
2022/08/08 07:45:30;;;;;;;3.58;1.42;;;20.20;99.90;;;;;;5127077;28;20054;-76
2022/08/08 07:47:57;;;;;;;3.33;1.42;;;19.10;99.90;;;;;;5127269;28;20084;-75
2022/08/08 07:50:24;;;;;;;5.35;1.48;;;19.50;99.90;;;;;;5106783;28;20727;-75
2022/08/08 07:52:55;;;;;;;3.42;1.88;;;19.60;99.90;;;;;;5127727;28;20222;-77
2022/08/08 07:55:24;;;;;;;3.30;2.08;;;19.60;99.90;;;;;;5127284;28;20050;-77
2022/08/08 07:58:12;;;;;;;2.90;1.80;;;19.70;99.90;;;;;;5127006;28;20551;-77
2022/08/08 08:00:42;;;;;;;2.05;1.75;;;19.50;99.90;;;;;;5127172;28;20058;-75
2022/08/08 08:03:16;;;;;;;4.00;1.60;;;19.80;99.90;;;;;;5125952;28;20059;-76
2022/08/08 08:05:43;;;;;;;5.60;1.60;;;20.00;99.90;;;;;;5127007;28;20051;-73
2022/08/08 08:08:18;;;;;;;2.90;1.40;;;19.70;99.90;;;;;;5127000;28;20108;-78
2022/08/08 08:10:47;;;;;;;6.38;1.75;;;19.90;99.90;;;;;;5127995;28;20748;-75
2022/08/08 08:13:35;;;;;;;3.80;1.60;;;20.10;99.90;;;;;;5128498;28;20135;-76
2022/08/08 08:16:04;;;;;;;4.90;1.45;;;19.70;99.90;;;;;;5082318;28;20047;-77
2022/08/08 08:18:41;;;;;;;5.68;1.70;;;18.50;99.90;;;;;;5114789;28;20044;-76
2022/08/08 08:21:08;;;;;;;4.07;1.50;;;19.90;99.90;;;;;;5114766;28;20043;-73
2022/08/08 08:23:35;;;;;;;4.20;1.58;;;19.90;99.90;;;;;;5114429;28;20105;-79
2022/08/08 08:26:01;;;;;;;7.47;1.90;;;20.20;99.90;;;;;;5114872;28;20431;-76
2022/08/08 08:28:27;;;;;;;2.67;1.40;;;20.30;99.90;;;;;;5114730;28;20127;-67
2022/08/08 08:30:54;;;;;;;3.03;1.60;;;20.60;99.90;;;;;;5114395;28;20087;-75
2022/08/08 08:33:20;;;;;;;2.92;1.60;;;20.30;99.90;;;;;;5107306;28;20447;-72
2022/08/08 08:35:47;;;;;;;3.38;1.58;;;20.30;99.90;;;;;;5103001;28;20087;-80
2022/08/08 08:38:12;;;;;;;5.53;1.50;;;20.50;99.90;;;;;;5074920;28;20040;-71
2022/08/08 08:40:38;;;;;;;5.10;1.80;;;20.40;99.90;;;;;;5092802;28;20406;-74
2022/08/08 08:43:04;;;;;;;5.82;1.55;;;20.70;99.90;;;;;;5093702;28;20050;-72
2022/08/08 08:45:31;;;;;;;4.60;1.60;;;20.00;99.90;;;;;;5093473;28;20113;-72
2022/08/08 08:47:57;;;;;;;4.38;1.42;;;20.60;99.90;;;;;;5108449;28;20051;-72
2022/08/08 08:50:25;;;;;;;3.17;1.40;;;20.30;99.90;;;;;;5113986;28;20108;-72
2022/08/08 08:52:52;;;;;;;5.30;2.00;;;20.20;99.90;;;;;;5113854;28;20122;-71
2022/08/08 08:55:19;;;;;;;4.03;1.50;;;20.70;99.90;;;;;;5114060;28;20051;-70
2022/08/08 08:57:47;;;;;;;7.07;1.88;;;20.60;99.90;;;;;;5114191;28;20142;-69
2022/08/08 09:00:13;;;;;;;3.45;1.40;;;20.50;99.90;;;;;;5095466;28;20048;-73
2022/08/08 09:02:41;;;;;;;4.57;1.55;;;20.40;99.90;;;;;;5113849;28;20503;-74
2022/08/08 09:05:08;;;;;;;4.40;1.40;;;20.50;99.90;;;;;;5113858;28;20143;-72
2022/08/08 09:07:35;;;;;;;3.63;1.35;;;20.50;99.90;;;;;;5113925;28;20051;-74
2022/08/08 09:10:03;;;;;;;3.05;1.40;;;20.50;99.90;;;;;;5113783;28;20487;-72
2022/08/08 09:12:32;;;;;;;4.68;1.50;;;20.10;99.90;;;;;;5113472;28;20480;-71
2022/08/08 09:14:59;;;;;;;2.65;1.60;;;20.20;99.90;;;;;;5113609;28;20047;-73
2022/08/08 09:17:25;;;;;;;4.60;1.55;;;20.40;99.90;;;;;;5113619;28;20062;-71
2022/08/08 09:20:01;;;;;;;3.28;1.38;;;20.30;99.90;;;;;;5112960;28;20039;-72
2022/08/08 09:22:27;;;;;;;3.63;1.45;;;20.30;99.90;;;;;;5113672;28;20055;-72
2022/08/08 09:24:54;;;;;;;3.13;1.65;;;20.40;99.90;;;;;;5095329;28;20043;-72
2022/08/08 09:27:21;;;;;;;4.93;2.08;;;20.50;99.90;;;;;;5112554;28;20050;-72
2022/08/08 09:30:04;;;;;;;3.20;1.42;;;20.10;99.90;;;;;;5113064;28;20050;-71
2022/08/08 09:32:37;;;;;;;3.55;1.88;;;20.40;99.90;;;;;;5107760;28;20399;-72
2022/08/08 09:35:07;;;;;;;3.88;1.52;;;20.60;99.90;;;;;;5112128;28;20047;-73
2022/08/08 09:37:50;;;;;;;5.13;1.50;;;20.10;99.90;;;;;;5111977;28;20043;-72
2022/08/08 09:40:21;;;;;;;4.60;1.65;;;20.10;99.90;;;;;;5111431;28;20118;-71
2022/08/08 09:43:08;;;;;;;6.50;1.70;;;20.10;99.90;;;;;;5111569;28;20499;-75
2022/08/08 09:45:45;;;;;;;3.80;1.60;;;20.30;99.90;;;;;;5090804;28;20102;-73
2022/08/08 09:48:11;;;;;;;3.28;1.55;;;20.50;99.90;;;;;;5111111;28;20047;-72
2022/08/08 09:50:39;;;;;;;2.75;1.52;;;20.70;99.90;;;;;;5111787;28;20122;-72
2022/08/08 09:53:09;;;;;;;4.85;1.55;;;20.40;99.90;;;;;;5111121;28;20043;-74
2022/08/08 09:55:36;;;;;;;1.98;1.55;;;20.70;99.90;;;;;;5092676;28;20058;-72
2022/08/08 09:58:06;;;;;;;3.78;1.50;;;20.60;99.90;;;;;;5110784;28;20074;-80
2022/08/08 10:00:37;;;;;;;4.63;1.90;;;20.90;99.90;;;;;;5108002;28;20051;-72
2022/08/08 10:03:04;;;;;;;2.70;1.42;;;20.80;99.90;;;;;;5106870;28;20051;-72
2022/08/08 10:05:34;;;;;;;6.18;1.75;;;21.10;99.90;;;;;;5093471;28;20051;-75
2022/08/08 10:08:01;;;;;;;7.65;1.90;;;21.00;99.90;;;;;;5111017;28;20502;-75
2022/08/08 10:10:29;;;;;;;2.72;1.60;;;21.20;99.90;;;;;;5110982;28;20043;-71
2022/08/08 10:12:55;;;;;;;4.15;1.95;;;21.00;99.90;;;;;;5110990;28;20051;-74
2022/08/08 10:15:26;;;;;;;3.50;1.50;;;20.90;99.90;;;;;;5093087;28;20043;-72
2022/08/08 10:17:54;;;;;;;3.45;1.50;;;21.00;99.90;;;;;;5110491;28;20114;-73
2022/08/08 10:20:25;;;;;;;3.20;1.55;;;21.10;99.90;;;;;;5110620;28;20127;-74
2022/08/08 10:22:59;;;;;;;5.13;1.42;;;21.30;99.90;;;;;;5111618;28;20039;-71
2022/08/08 10:25:26;;;;;;;3.05;1.35;;;21.60;99.90;;;;;;5110674;28;21575;-74
2022/08/08 10:27:53;;;;;;;4.72;1.60;;;21.10;99.90;;;;;;5112084;28;20054;-73
2022/08/08 10:30:21;;;;;;;2.03;1.27;;;21.40;99.90;;;;;;5112659;28;20043;-72
2022/08/08 10:32:55;;;;;;;2.50;1.40;;;21.30;99.90;;;;;;5111876;28;20130;-72
2022/08/08 10:35:26;;;;;;;6.30;1.60;;;21.30;99.90;;;;;;5112287;28;20043;-73
2022/08/08 10:38:00;;;;;;;6.28;1.67;;;21.40;99.90;;;;;;5112171;28;20055;-73
2022/08/08 10:40:29;;;;;;;3.47;1.23;;;21.30;99.90;;;;;;5112185;28;20085;-74
2022/08/08 10:43:00;;;;;;;3.28;1.65;;;21.40;99.90;;;;;;5111816;28;20172;-73
2022/08/08 10:45:27;;;;;;;6.10;1.88;;;21.50;99.90;;;;;;5112022;28;20181;-71
2022/08/08 10:47:58;;;;;;;4.25;1.70;;;21.10;99.90;;;;;;5086486;28;20123;-80
2022/08/08 10:50:34;;;;;;;2.42;1.30;;;21.40;99.90;;;;;;5090349;28;20048;-80
2022/08/08 10:53:05;;;;;;;3.77;1.40;;;21.30;99.90;;;;;;5089590;28;20048;-81
2022/08/08 10:55:32;;;;;;;4.88;1.60;;;21.40;99.90;;;;;;5090406;28;20641;-79
2022/08/08 10:58:02;;;;;;;3.35;1.33;;;21.00;99.90;;;;;;5073485;28;20562;-80
2022/08/08 11:00:28;;;;;;;5.70;1.33;;;21.20;99.90;;;;;;5091785;28;20094;-80
2022/08/08 11:02:55;;;;;;;5.05;1.58;;;21.20;99.90;;;;;;5091676;28;20048;-80
2022/08/08 11:05:22;;;;;;;4.82;1.42;;;21.40;99.90;;;;;;5091672;28;20094;-80
2022/08/08 11:07:53;;;;;;;5.07;1.58;;;21.30;99.90;;;;;;5073794;28;20117;-75
2022/08/08 11:10:21;;;;;;;5.38;1.70;;;21.30;99.90;;;;;;5091205;28;20052;-81
2022/08/08 11:13:00;;;;;;;7.05;1.52;;;21.00;99.90;;;;;;5091567;28;20048;-81
2022/08/08 11:15:29;;;;;;;5.40;1.80;;;21.10;99.90;;;;;;5091869;28;20044;-81
2022/08/08 11:17:55;;;;;;;3.60;1.35;;;21.20;99.90;;;;;;5091450;28;20048;-79
2022/08/08 11:20:24;;;;;;;3.85;1.52;;;21.30;99.90;;;;;;5091610;28;20044;-79
2022/08/08 11:22:54;;;;;;;1.98;1.30;;;21.30;99.90;;;;;;5091544;28;20043;-81
2022/08/08 11:25:26;;;;;;;3.90;1.55;;;21.20;99.90;;;;;;5100719;28;20559;-76
2022/08/08 11:27:56;;;;;;;2.63;1.67;;;21.40;99.90;;;;;;5110038;28;20108;-80
2022/08/08 11:30:26;;;;;;;6.80;1.60;;;21.30;99.90;;;;;;5110252;28;20047;-78
2022/08/08 11:32:57;;;;;;;9.27;1.63;;;21.20;99.90;;;;;;5091411;28;20046;-81
2022/08/08 11:35:26;;;;;;;4.65;1.45;;;20.40;99.90;;;;;;5110537;28;20043;-79
2022/08/08 11:37:52;;;;;;;2.67;1.30;;;20.50;99.90;;;;;;5110412;28;20044;-80
2022/08/08 11:40:18;;;;;;;2.72;1.40;;;20.90;99.90;;;;;;5109724;28;20049;-80
2022/08/08 11:42:44;;;;;;;4.10;1.45;;;20.70;99.90;;;;;;5109647;28;20097;-80
2022/08/08 11:45:12;;;;;;;6.63;2.05;;;20.70;99.90;;;;;;5110024;28;20056;-80
2022/08/08 11:47:39;;;;;;;9.27;2.25;;;20.90;99.90;;;;;;5109486;28;20077;-79
2022/08/08 11:50:11;;;;;;;4.95;1.45;;;21.10;99.90;;;;;;5076107;28;20548;-80
2022/08/08 11:52:37;;;;;;;5.65;1.40;;;21.10;99.90;;;;;;5115435;28;20044;-80
2022/08/08 11:55:25;;;;;;;1.30;1.20;;;21.30;99.90;;;;;;5115146;28;20544;-79
2022/08/08 11:58:07;;;;;;;4.32;1.30;;;21.00;99.90;;;;;;5115484;28;20090;-77
2022/08/08 12:00:33;;;;;;;4.45;1.35;;;21.40;99.90;;;;;;5096962;28;20074;-79
2022/08/08 12:02:59;;;;;;;2.38;1.38;;;21.50;99.90;;;;;;5115291;28;20047;-78
2022/08/08 12:05:37;;;;;;;3.10;1.42;;;21.40;99.90;;;;;;5115265;28;20059;-79
2022/08/08 12:08:03;;;;;;;3.55;1.40;;;21.30;99.90;;;;;;5096805;28;20093;-79
2022/08/08 12:10:30;;;;;;;4.43;1.45;;;21.40;99.90;;;;;;5115297;28;20044;-80
2022/08/08 12:13:04;;;;;;;2.45;1.50;;;21.50;99.90;;;;;;5115039;28;20044;-78
2022/08/08 12:15:35;;;;;;;4.65;1.58;;;21.50;99.90;;;;;;5115022;28;20039;-79
2022/08/08 12:18:13;;;;;;;3.88;1.50;;;22.40;99.90;;;;;;5115073;28;20043;-72
2022/08/08 12:20:39;;;;;;;10.18;1.85;;;22.50;99.90;;;;;;5114952;28;20051;-76
2022/08/08 12:23:05;;;;;;;3.33;1.35;;;22.50;99.90;;;;;;5114534;28;20046;-79
2022/08/08 12:25:32;;;;;;;2.15;1.30;;;22.50;99.90;;;;;;5114647;28;20395;-78
2022/08/08 12:28:15;;;;;;;5.03;1.60;;;22.20;99.90;;;;;;5104885;28;20051;-68
2022/08/08 12:30:42;;;;;;;4.63;1.70;;;22.10;99.90;;;;;;5112797;28;20048;-71
2022/08/08 12:33:18;;;;;;;6.10;1.88;;;21.60;99.90;;;;;;5093974;28;20043;-74
2022/08/08 12:35:44;;;;;;;3.95;1.35;;;22.30;99.90;;;;;;5113700;28;20132;-75
2022/08/08 12:38:13;;;;;;;4.18;1.40;;;22.20;99.90;;;;;;5113618;28;20055;-74
2022/08/08 12:40:45;;;;;;;4.78;1.73;;;21.80;99.90;;;;;;5113864;28;20181;-78
2022/08/08 12:43:12;;;;;;;3.15;1.50;;;22.10;99.90;;;;;;5094552;28;20043;-78
2022/08/08 12:45:42;;;;;;;6.15;1.65;;;22.20;99.90;;;;;;5113458;28;20101;-76
2022/08/08 12:48:22;;;;;;;5.65;1.65;;;21.60;99.90;;;;;;5113945;28;20078;-75
2022/08/08 12:50:53;;;;;;;6.32;2.40;;;21.90;99.90;;;;;;5114225;28;20093;-73
2022/08/08 12:53:20;;;;;;;4.30;1.45;;;21.10;99.90;;;;;;5113975;28;20118;-74
2022/08/08 12:55:55;;;;;;;4.68;1.80;;;21.80;99.90;;;;;;5114341;28;20062;-74
2022/08/08 12:58:22;;;;;;;6.20;1.70;;;21.70;99.90;;;;;;5114166;28;20054;-72
2022/08/08 13:00:49;;;;;;;2.85;1.50;;;22.00;99.90;;;;;;5114121;28;20063;-75
2022/08/08 13:03:31;;;;;;;2.50;1.50;;;22.20;99.90;;;;;;5113559;28;20066;-73
2022/08/08 13:06:08;;;;;;;2.83;1.40;;;22.80;99.90;;;;;;5114233;28;20055;-78
2022/08/08 13:09:04;;;;;;;18.95;2.15;;;23.60;99.90;;;;;;5114003;28;20044;-73
2022/08/08 13:11:37;;;;;;;8.87;1.80;;;23.50;99.90;;;;;;5113355;28;20048;-75
2022/08/08 13:14:14;;;;;;;4.32;1.40;;;23.30;99.90;;;;;;5113925;28;20285;-75
2022/08/08 13:16:40;;;;;;;5.03;1.27;;;23.20;99.90;;;;;;5113986;28;20043;-75
2022/08/08 13:19:08;;;;;;;9.40;1.80;;;23.10;99.90;;;;;;5113687;28;20055;-78
2022/08/08 13:21:40;;;;;;;10.00;1.42;;;23.20;99.90;;;;;;5113336;28;20039;-76
2022/08/08 13:24:06;;;;;;;9.23;1.30;;;23.50;99.90;;;;;;5095356;28;20122;-77
2022/08/08 13:26:32;;;;;;;11.32;2.10;;;23.60;99.90;;;;;;5096035;28;20952;-76
2022/08/08 13:29:06;;;;;;;3.80;1.42;;;24.00;99.90;;;;;;5113668;28;20056;-77